sensor_id;sensor_type;location;lat;lon;timestamp;P1;durP1;ratioP1;P2;durP2;ratioP2
48215;SDS011;34005;48.844;10.098;2023-07-29T00:02:21;2.35;;;1.35;;
48215;SDS011;34005;48.844;10.098;2023-07-29T00:04:49;1.13;;;1.02;;
48215;SDS011;34005;48.844;10.098;2023-07-29T00:07:17;1.38;;;1.27;;
48215;SDS011;34005;48.844;10.098;2023-07-29T00:09:45;0.77;;;0.77;;
48215;SDS011;34005;48.844;10.098;2023-07-29T00:12:12;0.95;;;0.95;;
48215;SDS011;34005;48.844;10.098;2023-07-29T00:14:40;1.88;;;0.88;;
48215;SDS011;34005;48.844;10.098;2023-07-29T00:17:07;0.98;;;0.90;;
48215;SDS011;34005;48.844;10.098;2023-07-29T00:19:36;0.82;;;0.70;;
48215;SDS011;34005;48.844;10.098;2023-07-29T00:22:04;1.25;;;0.70;;
48215;SDS011;34005;48.844;10.098;2023-07-29T00:24:34;1.10;;;1.00;;
48215;SDS011;34005;48.844;10.098;2023-07-29T00:27:02;1.00;;;0.90;;
48215;SDS011;34005;48.844;10.098;2023-07-29T00:29:30;3.80;;;0.90;;
48215;SDS011;34005;48.844;10.098;2023-07-29T00:31:57;3.40;;;0.80;;
48215;SDS011;34005;48.844;10.098;2023-07-29T00:34:25;1.50;;;0.93;;
48215;SDS011;34005;48.844;10.098;2023-07-29T00:36:54;0.93;;;0.93;;
48215;SDS011;34005;48.844;10.098;2023-07-29T00:39:22;1.42;;;0.80;;
48215;SDS011;34005;48.844;10.098;2023-07-29T00:41:50;0.95;;;0.75;;
48215;SDS011;34005;48.844;10.098;2023-07-29T00:44:17;1.00;;;0.90;;
48215;SDS011;34005;48.844;10.098;2023-07-29T00:46:45;2.00;;;1.33;;
48215;SDS011;34005;48.844;10.098;2023-07-29T00:49:13;2.80;;;0.90;;
48215;SDS011;34005;48.844;10.098;2023-07-29T00:51:41;1.45;;;0.70;;
48215;SDS011;34005;48.844;10.098;2023-07-29T00:54:10;3.53;;;1.17;;
48215;SDS011;34005;48.844;10.098;2023-07-29T00:56:38;1.35;;;1.05;;
48215;SDS011;34005;48.844;10.098;2023-07-29T00:59:05;3.33;;;0.90;;
48215;SDS011;34005;48.844;10.098;2023-07-29T01:01:33;1.52;;;0.80;;
48215;SDS011;34005;48.844;10.098;2023-07-29T01:04:01;0.93;;;0.80;;
48215;SDS011;34005;48.844;10.098;2023-07-29T01:06:29;1.20;;;1.00;;
48215;SDS011;34005;48.844;10.098;2023-07-29T01:09:07;5.05;;;0.98;;
48215;SDS011;34005;48.844;10.098;2023-07-29T01:11:56;1.30;;;0.60;;
48215;SDS011;34005;48.844;10.098;2023-07-29T01:14:29;0.60;;;0.60;;
48215;SDS011;34005;48.844;10.098;2023-07-29T01:17:03;0.98;;;0.70;;
48215;SDS011;34005;48.844;10.098;2023-07-29T01:19:42;0.70;;;0.60;;
48215;SDS011;34005;48.844;10.098;2023-07-29T01:22:21;4.05;;;1.05;;
48215;SDS011;34005;48.844;10.098;2023-07-29T01:24:50;4.50;;;0.98;;
48215;SDS011;34005;48.844;10.098;2023-07-29T01:27:17;1.35;;;0.75;;
48215;SDS011;34005;48.844;10.098;2023-07-29T01:29:45;1.75;;;0.70;;
48215;SDS011;34005;48.844;10.098;2023-07-29T01:32:14;5.72;;;0.80;;
48215;SDS011;34005;48.844;10.098;2023-07-29T01:34:47;2.58;;;0.80;;
48215;SDS011;34005;48.844;10.098;2023-07-29T01:37:21;1.83;;;0.60;;
48215;SDS011;34005;48.844;10.098;2023-07-29T01:39:54;1.65;;;0.85;;
48215;SDS011;34005;48.844;10.098;2023-07-29T01:42:25;2.03;;;1.02;;
48215;SDS011;34005;48.844;10.098;2023-07-29T01:44:56;4.45;;;0.70;;
48215;SDS011;34005;48.844;10.098;2023-07-29T01:47:23;0.95;;;0.75;;
48215;SDS011;34005;48.844;10.098;2023-07-29T01:49:51;1.42;;;0.80;;
48215;SDS011;34005;48.844;10.098;2023-07-29T01:52:18;0.90;;;0.90;;
48215;SDS011;34005;48.844;10.098;2023-07-29T01:54:46;1.45;;;0.75;;
48215;SDS011;34005;48.844;10.098;2023-07-29T01:57:15;0.65;;;0.65;;
48215;SDS011;34005;48.844;10.098;2023-07-29T01:59:43;1.15;;;1.05;;
48215;SDS011;34005;48.844;10.098;2023-07-29T02:02:10;1.20;;;0.77;;
48215;SDS011;34005;48.844;10.098;2023-07-29T02:04:38;1.70;;;0.68;;
48215;SDS011;34005;48.844;10.098;2023-07-29T02:07:06;3.83;;;0.82;;
48215;SDS011;34005;48.844;10.098;2023-07-29T02:09:34;1.23;;;0.68;;
48215;SDS011;34005;48.844;10.098;2023-07-29T02:12:01;0.82;;;0.82;;
48215;SDS011;34005;48.844;10.098;2023-07-29T02:14:31;1.83;;;0.88;;
48215;SDS011;34005;48.844;10.098;2023-07-29T02:16:58;2.00;;;1.10;;
48215;SDS011;34005;48.844;10.098;2023-07-29T02:19:26;1.88;;;0.77;;
48215;SDS011;34005;48.844;10.098;2023-07-29T02:21:54;2.65;;;0.80;;
48215;SDS011;34005;48.844;10.098;2023-07-29T02:24:21;1.30;;;0.60;;
48215;SDS011;34005;48.844;10.098;2023-07-29T02:26:49;3.97;;;0.70;;
48215;SDS011;34005;48.844;10.098;2023-07-29T02:29:16;0.82;;;0.80;;
48215;SDS011;34005;48.844;10.098;2023-07-29T02:31:45;2.40;;;0.85;;
48215;SDS011;34005;48.844;10.098;2023-07-29T02:34:13;1.30;;;0.60;;
48215;SDS011;34005;48.844;10.098;2023-07-29T02:36:41;2.17;;;0.85;;
48215;SDS011;34005;48.844;10.098;2023-07-29T02:39:09;5.82;;;1.20;;
48215;SDS011;34005;48.844;10.098;2023-07-29T02:41:36;0.77;;;0.77;;
48215;SDS011;34005;48.844;10.098;2023-07-29T02:44:04;1.75;;;0.85;;
48215;SDS011;34005;48.844;10.098;2023-07-29T02:46:32;2.33;;;0.68;;
48215;SDS011;34005;48.844;10.098;2023-07-29T02:49:02;3.95;;;0.77;;
48215;SDS011;34005;48.844;10.098;2023-07-29T02:51:30;1.20;;;0.80;;
48215;SDS011;34005;48.844;10.098;2023-07-29T02:53:58;1.02;;;0.65;;
48215;SDS011;34005;48.844;10.098;2023-07-29T02:56:26;1.52;;;0.68;;
48215;SDS011;34005;48.844;10.098;2023-07-29T02:58:53;1.40;;;0.90;;
48215;SDS011;34005;48.844;10.098;2023-07-29T03:01:22;3.10;;;1.10;;
48215;SDS011;34005;48.844;10.098;2023-07-29T03:03:51;3.05;;;1.50;;
48215;SDS011;34005;48.844;10.098;2023-07-29T03:06:20;1.35;;;1.05;;
48215;SDS011;34005;48.844;10.098;2023-07-29T03:08:48;3.97;;;1.05;;
48215;SDS011;34005;48.844;10.098;2023-07-29T03:11:16;2.70;;;1.10;;
48215;SDS011;34005;48.844;10.098;2023-07-29T03:13:44;3.58;;;1.15;;
48215;SDS011;34005;48.844;10.098;2023-07-29T03:16:12;3.60;;;1.80;;
48215;SDS011;34005;48.844;10.098;2023-07-29T03:18:41;3.25;;;1.60;;
48215;SDS011;34005;48.844;10.098;2023-07-29T03:21:10;2.88;;;1.20;;
48215;SDS011;34005;48.844;10.098;2023-07-29T03:23:39;2.85;;;0.80;;
48215;SDS011;34005;48.844;10.098;2023-07-29T03:26:07;1.50;;;0.90;;
48215;SDS011;34005;48.844;10.098;2023-07-29T03:28:37;3.08;;;1.63;;
48215;SDS011;34005;48.844;10.098;2023-07-29T03:31:06;1.30;;;1.00;;
48215;SDS011;34005;48.844;10.098;2023-07-29T03:33:34;1.52;;;1.00;;
48215;SDS011;34005;48.844;10.098;2023-07-29T03:36:02;2.35;;;1.23;;
48215;SDS011;34005;48.844;10.098;2023-07-29T03:38:30;2.92;;;1.35;;
48215;SDS011;34005;48.844;10.098;2023-07-29T03:41:00;3.90;;;1.50;;
48215;SDS011;34005;48.844;10.098;2023-07-29T03:43:29;2.50;;;1.40;;
48215;SDS011;34005;48.844;10.098;2023-07-29T03:45:56;2.72;;;1.42;;
48215;SDS011;34005;48.844;10.098;2023-07-29T03:48:24;2.35;;;1.35;;
48215;SDS011;34005;48.844;10.098;2023-07-29T03:50:51;3.53;;;1.60;;
48215;SDS011;34005;48.844;10.098;2023-07-29T03:53:19;4.28;;;1.60;;
48215;SDS011;34005;48.844;10.098;2023-07-29T03:55:47;2.13;;;1.55;;
48215;SDS011;34005;48.844;10.098;2023-07-29T03:58:17;3.65;;;1.50;;
48215;SDS011;34005;48.844;10.098;2023-07-29T04:00:45;5.00;;;1.55;;
48215;SDS011;34005;48.844;10.098;2023-07-29T04:03:12;3.13;;;1.50;;
48215;SDS011;34005;48.844;10.098;2023-07-29T04:05:40;3.67;;;2.28;;
48215;SDS011;34005;48.844;10.098;2023-07-29T04:08:08;2.92;;;1.50;;
48215;SDS011;34005;48.844;10.098;2023-07-29T04:10:36;2.58;;;1.50;;
48215;SDS011;34005;48.844;10.098;2023-07-29T04:13:04;2.10;;;1.30;;
48215;SDS011;34005;48.844;10.098;2023-07-29T04:15:33;1.25;;;1.15;;
48215;SDS011;34005;48.844;10.098;2023-07-29T04:18:00;3.20;;;1.58;;
48215;SDS011;34005;48.844;10.098;2023-07-29T04:20:28;2.92;;;1.70;;
48215;SDS011;34005;48.844;10.098;2023-07-29T04:22:56;3.50;;;1.45;;
48215;SDS011;34005;48.844;10.098;2023-07-29T04:25:24;1.40;;;1.30;;
48215;SDS011;34005;48.844;10.098;2023-07-29T04:27:51;4.00;;;1.52;;
48215;SDS011;34005;48.844;10.098;2023-07-29T04:30:19;2.05;;;1.40;;
48215;SDS011;34005;48.844;10.098;2023-07-29T04:32:48;3.25;;;1.38;;
48215;SDS011;34005;48.844;10.098;2023-07-29T04:35:16;2.08;;;1.30;;
48215;SDS011;34005;48.844;10.098;2023-07-29T04:37:44;2.25;;;1.60;;
48215;SDS011;34005;48.844;10.098;2023-07-29T04:40:14;4.00;;;1.50;;
48215;SDS011;34005;48.844;10.098;2023-07-29T04:42:42;4.60;;;1.65;;
48215;SDS011;34005;48.844;10.098;2023-07-29T04:45:10;2.72;;;1.65;;
48215;SDS011;34005;48.844;10.098;2023-07-29T04:47:37;2.25;;;1.52;;
48215;SDS011;34005;48.844;10.098;2023-07-29T04:50:07;2.42;;;1.60;;
48215;SDS011;34005;48.844;10.098;2023-07-29T04:52:35;5.22;;;1.90;;
48215;SDS011;34005;48.844;10.098;2023-07-29T04:55:03;2.30;;;1.45;;
48215;SDS011;34005;48.844;10.098;2023-07-29T04:57:31;2.28;;;1.15;;
48215;SDS011;34005;48.844;10.098;2023-07-29T04:59:59;2.17;;;1.65;;
48215;SDS011;34005;48.844;10.098;2023-07-29T05:02:26;1.63;;;1.52;;
48215;SDS011;34005;48.844;10.098;2023-07-29T05:04:54;1.95;;;1.85;;
48215;SDS011;34005;48.844;10.098;2023-07-29T05:07:23;2.47;;;1.63;;
48215;SDS011;34005;48.844;10.098;2023-07-29T05:09:51;5.78;;;1.92;;
48215;SDS011;34005;48.844;10.098;2023-07-29T05:12:18;2.17;;;1.70;;
48215;SDS011;34005;48.844;10.098;2023-07-29T05:14:46;4.22;;;1.65;;
48215;SDS011;34005;48.844;10.098;2023-07-29T05:17:14;3.58;;;1.52;;
48215;SDS011;34005;48.844;10.098;2023-07-29T05:19:41;1.77;;;1.30;;
48215;SDS011;34005;48.844;10.098;2023-07-29T05:22:09;1.60;;;1.50;;
48215;SDS011;34005;48.844;10.098;2023-07-29T05:24:38;3.05;;;1.70;;
48215;SDS011;34005;48.844;10.098;2023-07-29T05:27:06;3.28;;;1.58;;
48215;SDS011;34005;48.844;10.098;2023-07-29T05:29:34;2.95;;;1.33;;
48215;SDS011;34005;48.844;10.098;2023-07-29T05:32:02;2.42;;;1.17;;
48215;SDS011;34005;48.844;10.098;2023-07-29T05:34:30;3.78;;;1.60;;
48215;SDS011;34005;48.844;10.098;2023-07-29T05:36:58;3.35;;;1.42;;
48215;SDS011;34005;48.844;10.098;2023-07-29T05:39:26;2.13;;;1.40;;
48215;SDS011;34005;48.844;10.098;2023-07-29T05:41:55;1.95;;;1.40;;
48215;SDS011;34005;48.844;10.098;2023-07-29T05:44:22;3.60;;;1.40;;
48215;SDS011;34005;48.844;10.098;2023-07-29T05:46:50;3.85;;;1.90;;
48215;SDS011;34005;48.844;10.098;2023-07-29T05:49:17;2.00;;;1.88;;
48215;SDS011;34005;48.844;10.098;2023-07-29T05:51:45;2.47;;;1.80;;
48215;SDS011;34005;48.844;10.098;2023-07-29T05:54:13;3.40;;;1.90;;
48215;SDS011;34005;48.844;10.098;2023-07-29T05:56:40;2.08;;;1.60;;
48215;SDS011;34005;48.844;10.098;2023-07-29T05:59:09;7.72;;;1.98;;
48215;SDS011;34005;48.844;10.098;2023-07-29T06:01:37;6.55;;;2.38;;
48215;SDS011;34005;48.844;10.098;2023-07-29T06:04:05;4.00;;;2.00;;
48215;SDS011;34005;48.844;10.098;2023-07-29T06:06:32;4.57;;;2.35;;
48215;SDS011;34005;48.844;10.098;2023-07-29T06:09:01;5.28;;;2.28;;
48215;SDS011;34005;48.844;10.098;2023-07-29T06:11:28;2.97;;;2.17;;
48215;SDS011;34005;48.844;10.098;2023-07-29T06:13:56;3.63;;;2.25;;
48215;SDS011;34005;48.844;10.098;2023-07-29T06:16:25;3.47;;;1.67;;
48215;SDS011;34005;48.844;10.098;2023-07-29T06:18:53;2.08;;;1.70;;
48215;SDS011;34005;48.844;10.098;2023-07-29T06:21:20;4.85;;;1.88;;
48215;SDS011;34005;48.844;10.098;2023-07-29T06:23:48;5.70;;;2.33;;
48215;SDS011;34005;48.844;10.098;2023-07-29T06:26:15;3.78;;;1.92;;
48215;SDS011;34005;48.844;10.098;2023-07-29T06:28:43;3.55;;;1.92;;
48215;SDS011;34005;48.844;10.098;2023-07-29T06:31:11;3.75;;;2.10;;
48215;SDS011;34005;48.844;10.098;2023-07-29T06:33:40;4.22;;;2.25;;
48215;SDS011;34005;48.844;10.098;2023-07-29T06:36:07;2.90;;;1.95;;
48215;SDS011;34005;48.844;10.098;2023-07-29T06:38:35;6.93;;;2.40;;
48215;SDS011;34005;48.844;10.098;2023-07-29T06:41:03;4.03;;;2.13;;
48215;SDS011;34005;48.844;10.098;2023-07-29T06:43:31;5.18;;;1.98;;
48215;SDS011;34005;48.844;10.098;2023-07-29T06:45:58;3.33;;;2.10;;
48215;SDS011;34005;48.844;10.098;2023-07-29T06:48:26;3.83;;;1.80;;
48215;SDS011;34005;48.844;10.098;2023-07-29T06:50:55;3.95;;;1.80;;
48215;SDS011;34005;48.844;10.098;2023-07-29T06:53:26;5.47;;;2.65;;
48215;SDS011;34005;48.844;10.098;2023-07-29T06:55:54;5.00;;;2.08;;
48215;SDS011;34005;48.844;10.098;2023-07-29T06:58:22;4.28;;;2.28;;
48215;SDS011;34005;48.844;10.098;2023-07-29T07:00:50;4.80;;;2.22;;
48215;SDS011;34005;48.844;10.098;2023-07-29T07:03:20;5.82;;;2.22;;
48215;SDS011;34005;48.844;10.098;2023-07-29T07:05:48;2.25;;;1.63;;
48215;SDS011;34005;48.844;10.098;2023-07-29T07:08:18;1.92;;;1.60;;
48215;SDS011;34005;48.844;10.098;2023-07-29T07:10:46;2.60;;;2.40;;
48215;SDS011;34005;48.844;10.098;2023-07-29T07:13:14;3.45;;;2.35;;
48215;SDS011;34005;48.844;10.098;2023-07-29T07:15:41;3.78;;;1.65;;
48215;SDS011;34005;48.844;10.098;2023-07-29T07:18:09;2.88;;;2.25;;
48215;SDS011;34005;48.844;10.098;2023-07-29T07:20:37;2.92;;;1.27;;
48215;SDS011;34005;48.844;10.098;2023-07-29T07:23:04;1.63;;;1.52;;
48215;SDS011;34005;48.844;10.098;2023-07-29T07:25:36;2.78;;;1.15;;
48215;SDS011;34005;48.844;10.098;2023-07-29T07:28:03;2.38;;;1.80;;
48215;SDS011;34005;48.844;10.098;2023-07-29T07:30:31;3.05;;;1.50;;
48215;SDS011;34005;48.844;10.098;2023-07-29T07:32:59;2.28;;;1.83;;
48215;SDS011;34005;48.844;10.098;2023-07-29T07:35:26;3.97;;;1.73;;
48215;SDS011;34005;48.844;10.098;2023-07-29T07:37:54;2.72;;;1.63;;
48215;SDS011;34005;48.844;10.098;2023-07-29T07:40:22;2.55;;;1.60;;
48215;SDS011;34005;48.844;10.098;2023-07-29T07:42:51;5.70;;;4.10;;
48215;SDS011;34005;48.844;10.098;2023-07-29T07:45:19;2.97;;;1.80;;
48215;SDS011;34005;48.844;10.098;2023-07-29T07:47:46;6.13;;;1.70;;
48215;SDS011;34005;48.844;10.098;2023-07-29T07:50:14;2.15;;;1.33;;
48215;SDS011;34005;48.844;10.098;2023-07-29T07:52:42;4.10;;;1.67;;
48215;SDS011;34005;48.844;10.098;2023-07-29T07:55:10;3.67;;;2.75;;
48215;SDS011;34005;48.844;10.098;2023-07-29T07:57:38;2.25;;;2.00;;
48215;SDS011;34005;48.844;10.098;2023-07-29T08:00:07;4.47;;;2.35;;
48215;SDS011;34005;48.844;10.098;2023-07-29T08:02:36;5.28;;;2.45;;
48215;SDS011;34005;48.844;10.098;2023-07-29T08:05:04;2.97;;;1.80;;
48215;SDS011;34005;48.844;10.098;2023-07-29T08:07:32;3.28;;;1.50;;
48215;SDS011;34005;48.844;10.098;2023-07-29T08:10:00;3.55;;;1.48;;
48215;SDS011;34005;48.844;10.098;2023-07-29T08:12:28;1.60;;;1.27;;
48215;SDS011;34005;48.844;10.098;2023-07-29T08:14:55;2.63;;;1.23;;
48215;SDS011;34005;48.844;10.098;2023-07-29T08:17:25;2.30;;;1.42;;
48215;SDS011;34005;48.844;10.098;2023-07-29T08:19:52;3.60;;;1.80;;
48215;SDS011;34005;48.844;10.098;2023-07-29T08:22:20;4.95;;;1.25;;
48215;SDS011;34005;48.844;10.098;2023-07-29T08:24:47;2.33;;;1.27;;
48215;SDS011;34005;48.844;10.098;2023-07-29T08:27:15;2.05;;;0.95;;
48215;SDS011;34005;48.844;10.098;2023-07-29T08:29:43;2.15;;;0.90;;
48215;SDS011;34005;48.844;10.098;2023-07-29T08:32:10;2.10;;;1.27;;
48215;SDS011;34005;48.844;10.098;2023-07-29T08:34:39;1.85;;;1.17;;
48215;SDS011;34005;48.844;10.098;2023-07-29T08:37:07;1.05;;;0.95;;
48215;SDS011;34005;48.844;10.098;2023-07-29T08:39:35;1.88;;;0.90;;
48215;SDS011;34005;48.844;10.098;2023-07-29T08:42:03;1.10;;;1.00;;
48215;SDS011;34005;48.844;10.098;2023-07-29T08:44:37;2.55;;;1.25;;
48215;SDS011;34005;48.844;10.098;2023-07-29T08:49:36;0.60;;;0.60;;
48215;SDS011;34005;48.844;10.098;2023-07-29T08:52:07;0.20;;;0.20;;
48215;SDS011;34005;48.844;10.098;2023-07-29T08:54:35;1.42;;;0.50;;
48215;SDS011;34005;48.844;10.098;2023-07-29T08:57:03;0.60;;;0.50;;
48215;SDS011;34005;48.844;10.098;2023-07-29T08:59:31;1.13;;;0.70;;
48215;SDS011;34005;48.844;10.098;2023-07-29T09:02:00;0.90;;;0.60;;
48215;SDS011;34005;48.844;10.098;2023-07-29T09:04:27;2.10;;;0.68;;
48215;SDS011;34005;48.844;10.098;2023-07-29T09:06:55;0.75;;;0.60;;
48215;SDS011;34005;48.844;10.098;2023-07-29T09:09:25;0.63;;;0.40;;
48215;SDS011;34005;48.844;10.098;2023-07-29T09:11:53;1.48;;;0.70;;
48215;SDS011;34005;48.844;10.098;2023-07-29T09:14:20;1.65;;;0.95;;
48215;SDS011;34005;48.844;10.098;2023-07-29T09:16:48;4.82;;;0.80;;
48215;SDS011;34005;48.844;10.098;2023-07-29T09:19:16;2.30;;;0.60;;
48215;SDS011;34005;48.844;10.098;2023-07-29T09:21:45;1.63;;;0.98;;
48215;SDS011;34005;48.844;10.098;2023-07-29T09:24:15;1.80;;;0.60;;
48215;SDS011;34005;48.844;10.098;2023-07-29T09:26:49;1.00;;;0.40;;
48215;SDS011;34005;48.844;10.098;2023-07-29T09:29:21;1.77;;;1.65;;
48215;SDS011;34005;48.844;10.098;2023-07-29T09:31:50;0.80;;;0.80;;
48215;SDS011;34005;48.844;10.098;2023-07-29T09:34:17;1.52;;;0.77;;
48215;SDS011;34005;48.844;10.098;2023-07-29T09:36:45;1.30;;;0.50;;
48215;SDS011;34005;48.844;10.098;2023-07-29T09:39:13;1.15;;;0.80;;
48215;SDS011;34005;48.844;10.098;2023-07-29T09:41:40;1.15;;;0.57;;
48215;SDS011;34005;48.844;10.098;2023-07-29T09:44:10;0.73;;;0.65;;
48215;SDS011;34005;48.844;10.098;2023-07-29T09:46:37;2.40;;;0.60;;
48215;SDS011;34005;48.844;10.098;2023-07-29T09:49:07;1.30;;;0.90;;
48215;SDS011;34005;48.844;10.098;2023-07-29T09:51:36;2.40;;;0.50;;
48215;SDS011;34005;48.844;10.098;2023-07-29T09:54:05;0.77;;;0.68;;
48215;SDS011;34005;48.844;10.098;2023-07-29T09:56:32;1.00;;;0.90;;
48215;SDS011;34005;48.844;10.098;2023-07-29T09:59:01;0.60;;;0.60;;
48215;SDS011;34005;48.844;10.098;2023-07-29T10:01:32;1.92;;;0.95;;
48215;SDS011;34005;48.844;10.098;2023-07-29T10:04:03;1.00;;;0.60;;
48215;SDS011;34005;48.844;10.098;2023-07-29T10:06:31;1.20;;;0.85;;
48215;SDS011;34005;48.844;10.098;2023-07-29T10:09:02;1.88;;;0.80;;
48215;SDS011;34005;48.844;10.098;2023-07-29T10:11:31;1.65;;;0.73;;
48215;SDS011;34005;48.844;10.098;2023-07-29T10:14:01;3.30;;;2.30;;
48215;SDS011;34005;48.844;10.098;2023-07-29T10:16:35;2.97;;;1.77;;
48215;SDS011;34005;48.844;10.098;2023-07-29T10:19:04;1.20;;;1.10;;
48215;SDS011;34005;48.844;10.098;2023-07-29T10:21:33;0.68;;;0.68;;
48215;SDS011;34005;48.844;10.098;2023-07-29T10:24:03;2.15;;;0.77;;
48215;SDS011;34005;48.844;10.098;2023-07-29T10:26:36;0.90;;;0.90;;
48215;SDS011;34005;48.844;10.098;2023-07-29T10:29:10;0.90;;;0.90;;
48215;SDS011;34005;48.844;10.098;2023-07-29T10:31:41;1.85;;;1.20;;
48215;SDS011;34005;48.844;10.098;2023-07-29T10:34:10;1.77;;;0.60;;
48215;SDS011;34005;48.844;10.098;2023-07-29T10:36:39;0.60;;;0.60;;
48215;SDS011;34005;48.844;10.098;2023-07-29T10:39:07;1.38;;;0.80;;
48215;SDS011;34005;48.844;10.098;2023-07-29T10:41:56;2.67;;;0.88;;
48215;SDS011;34005;48.844;10.098;2023-07-29T10:47:21;1.40;;;0.73;;
48215;SDS011;34005;48.844;10.098;2023-07-29T10:55:26;0.98;;;0.98;;
48215;SDS011;34005;48.844;10.098;2023-07-29T10:58:04;1.45;;;1.20;;
48215;SDS011;34005;48.844;10.098;2023-07-29T11:00:33;1.20;;;1.10;;
48215;SDS011;34005;48.844;10.098;2023-07-29T11:03:03;1.50;;;1.40;;
48215;SDS011;34005;48.844;10.098;2023-07-29T11:05:43;0.80;;;0.80;;
48215;SDS011;34005;48.844;10.098;2023-07-29T11:08:19;2.08;;;0.95;;
48215;SDS011;34005;48.844;10.098;2023-07-29T11:11:04;1.67;;;1.15;;
48215;SDS011;34005;48.844;10.098;2023-07-29T11:13:33;2.08;;;1.67;;
48215;SDS011;34005;48.844;10.098;2023-07-29T11:16:02;1.30;;;1.20;;
48215;SDS011;34005;48.844;10.098;2023-07-29T11:18:33;0.30;;;0.30;;
48215;SDS011;34005;48.844;10.098;2023-07-29T11:21:02;0.70;;;0.40;;
48215;SDS011;34005;48.844;10.098;2023-07-29T11:23:31;3.22;;;0.75;;
48215;SDS011;34005;48.844;10.098;2023-07-29T11:26:00;2.63;;;0.73;;
48215;SDS011;34005;48.844;10.098;2023-07-29T11:28:28;1.23;;;0.43;;
48215;SDS011;34005;48.844;10.098;2023-07-29T11:30:56;1.50;;;0.43;;
48215;SDS011;34005;48.844;10.098;2023-07-29T11:33:25;2.67;;;1.02;;
48215;SDS011;34005;48.844;10.098;2023-07-29T11:35:56;1.45;;;0.52;;
48215;SDS011;34005;48.844;10.098;2023-07-29T11:38:23;0.88;;;0.50;;
48215;SDS011;34005;48.844;10.098;2023-07-29T11:40:55;2.00;;;0.95;;
48215;SDS011;34005;48.844;10.098;2023-07-29T11:45:51;1.80;;;0.50;;
48215;SDS011;34005;48.844;10.098;2023-07-29T11:48:25;0.82;;;0.30;;
48215;SDS011;34005;48.844;10.098;2023-07-29T11:50:55;1.25;;;0.50;;
48215;SDS011;34005;48.844;10.098;2023-07-29T11:53:25;2.75;;;0.32;;
48215;SDS011;34005;48.844;10.098;2023-07-29T11:55:54;1.27;;;0.38;;
48215;SDS011;34005;48.844;10.098;2023-07-29T11:58:22;2.25;;;0.80;;
48215;SDS011;34005;48.844;10.098;2023-07-29T12:00:51;2.03;;;0.50;;
48215;SDS011;34005;48.844;10.098;2023-07-29T12:03:19;0.70;;;0.20;;
48215;SDS011;34005;48.844;10.098;2023-07-29T12:05:47;1.10;;;0.40;;
48215;SDS011;34005;48.844;10.098;2023-07-29T12:08:17;2.13;;;0.80;;
48215;SDS011;34005;48.844;10.098;2023-07-29T12:10:45;2.20;;;0.90;;
48215;SDS011;34005;48.844;10.098;2023-07-29T12:13:12;1.23;;;0.40;;
48215;SDS011;34005;48.844;10.098;2023-07-29T12:15:40;0.65;;;0.40;;
48215;SDS011;34005;48.844;10.098;2023-07-29T12:18:08;0.73;;;0.57;;
48215;SDS011;34005;48.844;10.098;2023-07-29T12:20:36;0.50;;;0.45;;
48215;SDS011;34005;48.844;10.098;2023-07-29T12:23:04;0.88;;;0.55;;
48215;SDS011;34005;48.844;10.098;2023-07-29T12:25:34;1.23;;;0.60;;
48215;SDS011;34005;48.844;10.098;2023-07-29T12:28:02;1.48;;;0.60;;
48215;SDS011;34005;48.844;10.098;2023-07-29T12:30:31;1.00;;;0.70;;
48215;SDS011;34005;48.844;10.098;2023-07-29T12:32:59;1.23;;;0.55;;
48215;SDS011;34005;48.844;10.098;2023-07-29T12:35:33;1.13;;;0.70;;
48215;SDS011;34005;48.844;10.098;2023-07-29T12:38:02;0.98;;;0.68;;
48215;SDS011;34005;48.844;10.098;2023-07-29T12:40:30;0.65;;;0.65;;
48215;SDS011;34005;48.844;10.098;2023-07-29T12:42:59;1.38;;;0.60;;
48215;SDS011;34005;48.844;10.098;2023-07-29T12:45:27;0.68;;;0.68;;
48215;SDS011;34005;48.844;10.098;2023-07-29T12:48:05;0.80;;;0.80;;
48215;SDS011;34005;48.844;10.098;2023-07-29T12:50:33;0.75;;;0.68;;
48215;SDS011;34005;48.844;10.098;2023-07-29T12:53:01;1.15;;;0.93;;
48215;SDS011;34005;48.844;10.098;2023-07-29T12:55:28;0.98;;;0.75;;
48215;SDS011;34005;48.844;10.098;2023-07-29T12:57:56;2.13;;;0.60;;
48215;SDS011;34005;48.844;10.098;2023-07-29T13:00:26;2.13;;;0.80;;
48215;SDS011;34005;48.844;10.098;2023-07-29T13:02:53;0.90;;;0.80;;
48215;SDS011;34005;48.844;10.098;2023-07-29T13:05:21;1.40;;;0.80;;
48215;SDS011;34005;48.844;10.098;2023-07-29T13:07:49;1.25;;;0.82;;
48215;SDS011;34005;48.844;10.098;2023-07-29T13:10:16;0.80;;;0.73;;
48215;SDS011;34005;48.844;10.098;2023-07-29T13:12:44;1.15;;;0.82;;
48215;SDS011;34005;48.844;10.098;2023-07-29T13:15:12;1.75;;;1.00;;
48215;SDS011;34005;48.844;10.098;2023-07-29T13:17:40;1.27;;;1.10;;
48215;SDS011;34005;48.844;10.098;2023-07-29T13:20:08;1.65;;;1.23;;
48215;SDS011;34005;48.844;10.098;2023-07-29T13:22:36;1.92;;;1.00;;
48215;SDS011;34005;48.844;10.098;2023-07-29T13:25:04;1.75;;;1.63;;
48215;SDS011;34005;48.844;10.098;2023-07-29T13:27:31;1.30;;;1.17;;
48215;SDS011;34005;48.844;10.098;2023-07-29T13:29:59;0.93;;;0.90;;
48215;SDS011;34005;48.844;10.098;2023-07-29T13:32:27;1.85;;;1.13;;
48215;SDS011;34005;48.844;10.098;2023-07-29T13:34:56;1.38;;;0.90;;
48215;SDS011;34005;48.844;10.098;2023-07-29T13:37:23;3.05;;;1.40;;
48215;SDS011;34005;48.844;10.098;2023-07-29T13:39:51;1.10;;;1.10;;
48215;SDS011;34005;48.844;10.098;2023-07-29T13:42:18;1.30;;;1.20;;
48215;SDS011;34005;48.844;10.098;2023-07-29T13:44:46;1.30;;;1.10;;
48215;SDS011;34005;48.844;10.098;2023-07-29T13:47:14;1.13;;;1.02;;
48215;SDS011;34005;48.844;10.098;2023-07-29T13:49:41;1.10;;;0.93;;
48215;SDS011;34005;48.844;10.098;2023-07-29T13:52:10;1.65;;;1.50;;
48215;SDS011;34005;48.844;10.098;2023-07-29T13:54:38;1.98;;;1.20;;
48215;SDS011;34005;48.844;10.098;2023-07-29T13:57:06;1.88;;;1.40;;
48215;SDS011;34005;48.844;10.098;2023-07-29T13:59:33;1.40;;;0.98;;
48215;SDS011;34005;48.844;10.098;2023-07-29T14:02:01;1.17;;;1.08;;
48215;SDS011;34005;48.844;10.098;2023-07-29T14:04:29;0.85;;;0.85;;
48215;SDS011;34005;48.844;10.098;2023-07-29T14:06:56;1.90;;;1.15;;
48215;SDS011;34005;48.844;10.098;2023-07-29T14:09:26;1.33;;;1.23;;
48215;SDS011;34005;48.844;10.098;2023-07-29T14:11:54;1.50;;;1.40;;
48215;SDS011;34005;48.844;10.098;2023-07-29T14:14:22;1.42;;;1.33;;
48215;SDS011;34005;48.844;10.098;2023-07-29T14:16:49;1.92;;;1.15;;
48215;SDS011;34005;48.844;10.098;2023-07-29T14:19:17;1.45;;;1.35;;
48215;SDS011;34005;48.844;10.098;2023-07-29T14:21:45;1.40;;;1.30;;
48215;SDS011;34005;48.844;10.098;2023-07-29T14:24:12;3.08;;;1.60;;
48215;SDS011;34005;48.844;10.098;2023-07-29T14:26:42;1.63;;;1.25;;
48215;SDS011;34005;48.844;10.098;2023-07-29T14:29:10;1.67;;;1.58;;
48215;SDS011;34005;48.844;10.098;2023-07-29T14:31:37;1.20;;;1.10;;
48215;SDS011;34005;48.844;10.098;2023-07-29T14:34:05;1.08;;;0.98;;
48215;SDS011;34005;48.844;10.098;2023-07-29T14:36:33;3.63;;;2.03;;
48215;SDS011;34005;48.844;10.098;2023-07-29T14:39:01;1.67;;;1.38;;
48215;SDS011;34005;48.844;10.098;2023-07-29T14:41:29;3.08;;;1.23;;
48215;SDS011;34005;48.844;10.098;2023-07-29T14:43:58;1.13;;;1.02;;
48215;SDS011;34005;48.844;10.098;2023-07-29T14:46:25;1.42;;;1.33;;
48215;SDS011;34005;48.844;10.098;2023-07-29T14:48:53;1.67;;;1.33;;
48215;SDS011;34005;48.844;10.098;2023-07-29T14:51:20;2.53;;;1.60;;
48215;SDS011;34005;48.844;10.098;2023-07-29T14:53:49;1.00;;;1.00;;
48215;SDS011;34005;48.844;10.098;2023-07-29T14:56:17;0.98;;;0.98;;